Time;durP1;ratioP1;P1;durP2;ratioP2;P2;SDS_P1;SDS_P2;PMS_P1;PMS_P2;Temp;Humidity;BMP_temperature;BMP_pressure;BME280_temperature;BME280_humidity;BME280_pressure;Samples;Min_cycle;Max_cycle;Signal;HPM_P1;HPM_P2
2023/05/15 00:00:13;;;;;;;2.88;2.67;;;18.40;66.80;;;;;;5009545;28;20200;-65
2023/05/15 00:02:43;;;;;;;2.97;2.75;;;18.40;66.80;;;;;;5019326;28;20729;-65
2023/05/15 00:05:10;;;;;;;2.95;2.75;;;18.40;66.80;;;;;;4994843;28;20243;-66
2023/05/15 00:07:37;;;;;;;3.53;2.72;;;18.40;66.80;;;;;;5007744;28;20279;-65
2023/05/15 00:10:03;;;;;;;3.03;2.70;;;18.50;67.00;;;;;;5019302;28;20192;-66
2023/05/15 00:12:29;;;;;;;2.75;2.55;;;18.50;67.00;;;;;;5027753;28;20192;-65
2023/05/15 00:14:54;;;;;;;2.88;2.67;;;18.40;66.80;;;;;;5012109;28;20219;-65
2023/05/15 00:17:20;;;;;;;3.00;2.80;;;18.40;66.80;;;;;;4994546;28;20192;-65
2023/05/15 00:19:46;;;;;;;3.22;2.67;;;18.50;66.90;;;;;;5010934;28;20196;-64
2023/05/15 00:22:12;;;;;;;2.78;2.58;;;18.40;66.90;;;;;;4994811;28;20250;-64
2023/05/15 00:24:37;;;;;;;3.00;2.80;;;18.50;67.00;;;;;;5011046;28;20766;-65
2023/05/15 00:27:03;;;;;;;2.50;2.30;;;18.40;66.80;;;;;;4994383;28;20198;-65
2023/05/15 00:29:29;;;;;;;2.70;2.50;;;18.40;66.80;;;;;;5010983;28;20188;-64
2023/05/15 00:31:55;;;;;;;2.50;2.30;;;18.50;67.70;;;;;;5010784;28;20192;-64
2023/05/15 00:34:24;;;;;;;3.00;2.80;;;18.40;66.80;;;;;;5010938;28;20184;-65
2023/05/15 00:36:50;;;;;;;2.80;2.60;;;18.40;66.80;;;;;;4994639;28;20217;-65
2023/05/15 00:39:16;;;;;;;2.45;2.25;;;18.40;66.80;;;;;;5011278;28;20194;-65
2023/05/15 00:41:44;;;;;;;2.72;2.53;;;18.40;66.80;;;;;;4994880;28;20200;-65
2023/05/15 00:44:11;;;;;;;2.60;2.40;;;18.50;67.80;;;;;;4994543;28;20184;-65
2023/05/15 00:46:38;;;;;;;2.90;2.70;;;18.40;66.90;;;;;;5010844;28;20660;-64
2023/05/15 00:49:05;;;;;;;3.75;2.70;;;18.40;66.80;;;;;;4994791;28;20215;-65
2023/05/15 00:51:32;;;;;;;2.83;2.63;;;18.40;66.80;;;;;;5010728;28;20184;-62
2023/05/15 00:53:58;;;;;;;2.70;2.50;;;18.40;67.60;;;;;;4994388;28;20192;-64
2023/05/15 00:56:29;;;;;;;2.70;2.50;;;18.40;66.80;;;;;;5011634;28;20212;-64
2023/05/15 00:58:58;;;;;;;3.03;2.33;;;18.40;66.80;;;;;;5010541;28;20188;-65
2023/05/15 01:01:24;;;;;;;3.05;2.75;;;18.40;66.80;;;;;;5027013;28;20662;-64
2023/05/15 01:03:50;;;;;;;2.85;2.55;;;18.40;66.80;;;;;;5010631;28;20288;-64
2023/05/15 01:06:16;;;;;;;2.45;2.33;;;18.40;66.80;;;;;;5014255;28;20264;-64
2023/05/15 01:08:45;;;;;;;2.38;2.20;;;18.40;67.60;;;;;;5014469;28;20234;-64
2023/05/15 01:11:13;;;;;;;2.70;2.50;;;18.40;66.80;;;;;;5030602;28;20199;-64
2023/05/15 01:13:39;;;;;;;2.55;2.35;;;18.40;66.80;;;;;;5014328;28;20195;-64
2023/05/15 01:16:07;;;;;;;2.80;2.60;;;18.40;66.80;;;;;;4997444;28;20822;-64
2023/05/15 01:18:33;;;;;;;2.30;2.20;;;18.40;66.70;;;;;;5015286;28;20245;-64
2023/05/15 01:21:26;;;;;;;2.92;2.72;;;18.40;66.80;;;;;;5014111;28;20192;-64
2023/05/15 01:24:30;;;;;;;2.60;2.40;;;18.40;66.80;;;;;;5014113;28;20180;-65
2023/05/15 01:27:36;;;;;;;2.47;2.28;;;18.40;66.70;;;;;;5030420;28;20211;-64
2023/05/15 01:30:22;;;;;;;2.50;2.30;;;18.40;66.70;;;;;;4997516;28;20202;-64
2023/05/15 01:33:21;;;;;;;2.60;2.40;;;18.40;66.70;;;;;;5013838;28;20220;-65
2023/05/15 01:36:23;;;;;;;2.75;2.53;;;18.40;66.70;;;;;;5013923;28;20232;-65
2023/05/15 01:38:55;;;;;;;3.00;2.80;;;18.40;66.80;;;;;;4997383;28;20190;-65
2023/05/15 01:41:37;;;;;;;2.47;2.28;;;18.40;66.70;;;;;;4997376;28;20212;-65
2023/05/15 01:44:32;;;;;;;2.55;2.35;;;18.40;66.70;;;;;;4997335;28;20219;-65
2023/05/15 01:47:11;;;;;;;2.50;2.30;;;18.40;66.70;;;;;;5013359;28;20187;-66
2023/05/15 01:49:39;;;;;;;3.03;2.70;;;18.40;66.70;;;;;;5013590;28;20266;-65
2023/05/15 01:52:34;;;;;;;2.95;2.65;;;18.40;66.70;;;;;;5013543;28;20192;-65
2023/05/15 01:55:04;;;;;;;2.30;2.10;;;18.30;66.60;;;;;;5013540;28;20212;-65
2023/05/15 01:57:32;;;;;;;2.30;2.10;;;18.40;66.70;;;;;;5013384;28;20279;-65
2023/05/15 02:00:00;;;;;;;2.80;2.60;;;18.40;66.70;;;;;;5013129;28;20199;-65
2023/05/15 02:02:28;;;;;;;2.45;2.25;;;18.40;66.70;;;;;;5014431;28;20279;-66
2023/05/15 02:04:55;;;;;;;2.60;2.40;;;18.40;66.70;;;;;;5013285;28;20212;-66
2023/05/15 02:07:23;;;;;;;2.53;2.33;;;18.40;66.70;;;;;;4996966;28;20191;-66
2023/05/15 02:09:51;;;;;;;2.45;2.25;;;18.40;66.70;;;;;;4996972;28;20223;-65
2023/05/15 02:12:18;;;;;;;2.40;2.17;;;18.40;66.70;;;;;;5030024;28;20217;-65
2023/05/15 02:14:47;;;;;;;2.42;2.22;;;18.40;66.70;;;;;;5013002;28;20184;-66
2023/05/15 02:17:14;;;;;;;2.97;2.50;;;18.40;66.70;;;;;;4996461;28;20195;-66
2023/05/15 02:19:39;;;;;;;2.15;2.05;;;18.40;66.70;;;;;;4996371;28;20188;-65
2023/05/15 02:22:05;;;;;;;2.53;2.33;;;18.40;66.70;;;;;;5012900;28;20219;-65
2023/05/15 02:24:32;;;;;;;2.50;2.30;;;18.40;66.70;;;;;;5013220;28;20184;-65
2023/05/15 02:27:16;;;;;;;2.40;2.20;;;18.40;66.70;;;;;;4996149;28;20253;-67
2023/05/15 02:30:19;;;;;;;2.40;2.20;;;18.40;66.70;;;;;;5013093;28;20195;-66
2023/05/15 02:33:26;;;;;;;2.58;2.30;;;18.40;66.70;;;;;;4996720;28;20187;-65
2023/05/15 02:36:05;;;;;;;2.30;2.20;;;18.40;66.70;;;;;;5012550;28;20216;-65
2023/05/15 02:38:47;;;;;;;2.63;2.42;;;18.40;66.70;;;;;;4996591;28;20203;-65
2023/05/15 02:41:15;;;;;;;2.55;2.35;;;18.40;66.70;;;;;;5021240;28;20211;-65
2023/05/15 02:43:43;;;;;;;2.50;2.30;;;18.40;66.60;;;;;;4996456;28;20180;-65
2023/05/15 02:46:11;;;;;;;2.60;2.40;;;18.40;66.70;;;;;;4996216;28;20196;-65
2023/05/15 02:48:41;;;;;;;2.65;2.45;;;18.40;66.60;;;;;;5012300;28;20176;-65
2023/05/15 02:51:09;;;;;;;2.30;2.20;;;18.40;66.60;;;;;;4995941;28;20235;-66
2023/05/15 02:53:41;;;;;;;2.50;2.30;;;18.40;66.60;;;;;;5024562;28;20267;-66
2023/05/15 02:56:08;;;;;;;2.47;2.30;;;18.40;66.60;;;;;;5020044;28;20213;-65
2023/05/15 02:58:35;;;;;;;2.70;2.50;;;18.40;66.60;;;;;;5028792;28;20180;-65
2023/05/15 03:01:01;;;;;;;2.40;2.20;;;18.40;66.60;;;;;;4995635;28;20196;-65
2023/05/15 03:03:26;;;;;;;2.60;2.40;;;18.40;66.60;;;;;;4995677;28;20184;-65
2023/05/15 03:05:52;;;;;;;2.40;2.20;;;18.40;66.60;;;;;;4995679;28;20228;-64
2023/05/15 03:08:18;;;;;;;2.35;2.25;;;18.40;66.70;;;;;;5007900;28;20177;-64
2023/05/15 03:10:44;;;;;;;2.20;2.10;;;18.40;66.60;;;;;;5017198;28;20187;-66
2023/05/15 03:13:10;;;;;;;2.58;2.38;;;18.40;66.60;;;;;;5027770;28;20239;-66
2023/05/15 03:15:36;;;;;;;2.65;2.45;;;18.40;66.60;;;;;;4995723;28;20203;-65
2023/05/15 03:18:02;;;;;;;2.67;2.45;;;18.30;66.60;;;;;;4995431;28;20192;-66
2023/05/15 03:20:27;;;;;;;1.95;1.85;;;18.40;66.60;;;;;;5011924;28;20195;-66
2023/05/15 03:22:53;;;;;;;2.20;2.10;;;18.40;66.60;;;;;;5011636;28;20718;-65
2023/05/15 03:25:20;;;;;;;2.45;2.30;;;18.40;66.60;;;;;;4995511;28;20206;-66
2023/05/15 03:27:45;;;;;;;2.60;2.40;;;18.40;66.70;;;;;;4994535;28;20176;-66
2023/05/15 03:30:11;;;;;;;2.97;2.63;;;18.30;66.50;;;;;;5020305;28;20192;-64
2023/05/15 03:32:37;;;;;;;2.55;2.35;;;18.40;66.60;;;;;;5011646;28;20188;-65
2023/05/15 03:35:03;;;;;;;2.40;2.20;;;18.40;66.60;;;;;;4995299;28;20208;-65
2023/05/15 03:37:29;;;;;;;2.28;2.17;;;18.40;66.60;;;;;;5011408;28;20237;-65
2023/05/15 03:39:54;;;;;;;2.20;2.10;;;18.30;66.50;;;;;;4995391;28;20180;-66
2023/05/15 03:42:22;;;;;;;2.67;2.47;;;18.30;66.50;;;;;;5011722;28;20239;-65
2023/05/15 03:44:49;;;;;;;2.42;2.30;;;18.30;66.50;;;;;;5003506;28;20176;-65
2023/05/15 03:47:15;;;;;;;2.58;2.22;;;18.40;66.60;;;;;;5011390;28;20191;-65
2023/05/15 03:49:41;;;;;;;2.65;2.45;;;18.40;66.50;;;;;;4994962;28;20327;-66
2023/05/15 03:52:07;;;;;;;2.40;2.20;;;18.30;66.40;;;;;;4994704;28;20283;-65
2023/05/15 03:54:34;;;;;;;2.65;2.45;;;18.40;66.60;;;;;;4991528;28;20191;-65
2023/05/15 03:57:00;;;;;;;2.08;1.98;;;18.30;66.50;;;;;;4992777;28;20185;-66
2023/05/15 03:59:26;;;;;;;2.40;2.20;;;18.40;66.60;;;;;;4994826;28;20188;-66
2023/05/15 04:01:52;;;;;;;2.45;2.25;;;18.40;67.40;;;;;;4994704;28;20343;-65
2023/05/15 04:04:17;;;;;;;2.58;2.35;;;18.40;66.60;;;;;;5003283;28;20205;-66
2023/05/15 04:06:43;;;;;;;2.38;2.17;;;18.30;66.50;;;;;;5019060;28;20200;-65
2023/05/15 04:09:09;;;;;;;2.60;2.40;;;18.30;66.50;;;;;;5011033;28;20248;-65
2023/05/15 04:11:35;;;;;;;2.45;2.25;;;18.30;66.50;;;;;;5011545;28;20220;-65
2023/05/15 04:14:01;;;;;;;2.75;2.55;;;18.30;66.50;;;;;;4994851;28;20192;-65
2023/05/15 04:16:26;;;;;;;2.20;2.10;;;18.40;66.50;;;;;;5027313;28;20203;-65
2023/05/15 04:18:52;;;;;;;2.53;2.33;;;18.30;66.50;;;;;;4994569;28;20188;-65
2023/05/15 04:21:18;;;;;;;2.88;2.67;;;18.30;66.50;;;;;;5010855;28;20220;-65
2023/05/15 04:23:44;;;;;;;3.38;2.30;;;18.30;66.50;;;;;;5011159;28;20274;-65
2023/05/15 04:26:10;;;;;;;2.50;2.30;;;18.40;66.60;;;;;;5025090;28;20215;-65
2023/05/15 04:28:36;;;;;;;3.80;2.45;;;18.30;66.50;;;;;;5021820;28;20246;-65
2023/05/15 04:31:01;;;;;;;2.83;2.63;;;18.40;66.60;;;;;;5011112;28;20180;-65
2023/05/15 04:33:27;;;;;;;2.83;2.55;;;18.30;66.50;;;;;;4994633;28;20242;-65
2023/05/15 04:35:53;;;;;;;2.38;2.20;;;18.30;66.50;;;;;;5010778;28;20695;-65
2023/05/15 04:38:19;;;;;;;2.20;2.10;;;18.30;66.40;;;;;;5011771;28;20183;-66
2023/05/15 04:40:45;;;;;;;2.70;2.50;;;18.40;66.60;;;;;;5015025;28;20180;-65
2023/05/15 04:43:10;;;;;;;2.50;2.30;;;18.30;66.50;;;;;;4998230;28;20211;-64
2023/05/15 04:45:36;;;;;;;2.47;2.25;;;18.30;66.40;;;;;;5014504;28;20702;-65
2023/05/15 04:48:03;;;;;;;2.10;2.00;;;18.40;66.50;;;;;;4998278;28;20224;-66
2023/05/15 04:50:29;;;;;;;2.42;2.22;;;18.30;66.40;;;;;;5014680;28;20188;-66
2023/05/15 04:52:54;;;;;;;2.60;2.40;;;18.30;66.40;;;;;;5014646;28;20192;-66
2023/05/15 04:55:20;;;;;;;2.33;2.20;;;18.40;66.60;;;;;;5014445;28;20207;-66
2023/05/15 04:57:46;;;;;;;2.70;2.50;;;18.40;66.60;;;;;;4997945;28;20184;-66
2023/05/15 05:00:13;;;;;;;2.70;2.50;;;18.40;66.60;;;;;;5014239;28;20305;-66
2023/05/15 05:02:42;;;;;;;2.50;2.30;;;18.40;66.60;;;;;;4994804;28;20213;-65
2023/05/15 05:05:08;;;;;;;2.80;2.60;;;18.40;66.60;;;;;;5028932;28;20208;-66
2023/05/15 05:07:34;;;;;;;2.97;2.65;;;18.40;66.60;;;;;;5015364;28;20192;-66
2023/05/15 05:10:01;;;;;;;2.63;2.42;;;18.40;66.60;;;;;;4998132;28;20191;-67
2023/05/15 05:12:26;;;;;;;2.70;2.50;;;18.40;66.60;;;;;;5015472;28;20276;-66
2023/05/15 05:14:52;;;;;;;2.78;2.60;;;18.40;66.70;;;;;;4997735;28;20283;-66
2023/05/15 05:17:18;;;;;;;2.80;2.60;;;18.40;66.70;;;;;;5014088;28;20279;-66
2023/05/15 05:19:43;;;;;;;2.92;2.72;;;18.40;66.60;;;;;;4997875;28;20188;-66
2023/05/15 05:22:10;;;;;;;2.80;2.60;;;18.50;66.70;;;;;;4996130;28;20584;-66
2023/05/15 05:24:36;;;;;;;2.92;2.72;;;18.40;66.50;;;;;;5013843;28;20191;-66
2023/05/15 05:27:03;;;;;;;2.83;2.60;;;18.40;66.60;;;;;;4997574;28;20188;-66
2023/05/15 05:29:30;;;;;;;3.00;2.80;;;18.40;66.50;;;;;;5013770;28;20172;-67
2023/05/15 05:31:56;;;;;;;3.25;3.05;;;18.40;66.50;;;;;;5013954;28;20205;-66
2023/05/15 05:34:22;;;;;;;3.30;3.10;;;18.40;66.50;;;;;;4997719;28;20227;-67
2023/05/15 05:36:48;;;;;;;2.80;2.60;;;18.40;66.50;;;;;;5013553;28;20200;-66
2023/05/15 05:39:15;;;;;;;3.20;2.90;;;18.50;66.60;;;;;;5014037;28;20250;-66
2023/05/15 05:41:42;;;;;;;2.50;2.30;;;18.50;66.60;;;;;;5014010;28;20219;-65
2023/05/15 05:44:08;;;;;;;2.95;2.75;;;18.50;66.60;;;;;;4997039;28;20238;-66
2023/05/15 05:46:34;;;;;;;2.95;2.75;;;18.50;66.60;;;;;;5023597;28;20200;-66
2023/05/15 05:48:59;;;;;;;2.65;2.47;;;18.50;66.60;;;;;;5013519;28;20180;-66
2023/05/15 05:51:25;;;;;;;2.95;2.75;;;18.50;66.60;;;;;;5013036;28;20188;-66
2023/05/15 05:53:51;;;;;;;2.92;2.72;;;18.50;66.60;;;;;;4997301;28;20188;-66
2023/05/15 05:56:17;;;;;;;2.80;2.65;;;18.50;66.60;;;;;;5013261;28;20220;-66
2023/05/15 05:58:42;;;;;;;3.00;2.80;;;18.50;66.60;;;;;;5013489;28;20199;-66
2023/05/15 06:01:08;;;;;;;4.68;3.15;;;18.50;66.70;;;;;;4996653;28;20206;-66
2023/05/15 06:03:35;;;;;;;3.15;2.85;;;18.60;66.70;;;;;;5030062;28;20188;-66
2023/05/15 06:06:01;;;;;;;3.03;2.83;;;18.50;66.70;;;;;;4996574;28;20262;-65
2023/05/15 06:08:29;;;;;;;3.60;3.30;;;18.50;66.70;;;;;;4997270;28;20172;-66
2023/05/15 06:10:54;;;;;;;2.88;2.67;;;18.60;66.90;;;;;;5029543;28;20184;-66
2023/05/15 06:13:21;;;;;;;2.92;2.80;;;18.60;66.90;;;;;;5029549;28;20211;-66
2023/05/15 06:15:46;;;;;;;2.97;2.78;;;18.60;67.70;;;;;;4996842;28;20249;-65
2023/05/15 06:18:12;;;;;;;2.92;2.72;;;18.60;67.00;;;;;;5013185;28;20200;-66
2023/05/15 06:20:38;;;;;;;3.10;2.90;;;18.60;67.00;;;;;;5013118;28;20283;-65
2023/05/15 06:23:04;;;;;;;2.92;2.72;;;18.60;67.10;;;;;;5014071;28;20285;-66
2023/05/15 06:25:30;;;;;;;2.92;2.72;;;18.70;67.00;;;;;;5013197;28;20204;-66
2023/05/15 06:27:56;;;;;;;3.08;2.88;;;18.60;67.30;;;;;;5005587;28;20264;-66
2023/05/15 06:30:22;;;;;;;2.53;2.38;;;18.60;66.90;;;;;;5012214;28;20192;-66
2023/05/15 06:32:47;;;;;;;3.05;2.85;;;18.70;67.00;;;;;;4996374;28;20196;-66
2023/05/15 06:35:13;;;;;;;3.28;3.08;;;18.60;67.00;;;;;;4996209;28;20211;-66
2023/05/15 06:37:39;;;;;;;3.30;3.00;;;18.60;67.30;;;;;;4996478;28;20234;-66
2023/05/15 06:40:05;;;;;;;3.13;2.92;;;18.60;67.20;;;;;;5012793;28;20180;-66
2023/05/15 06:42:32;;;;;;;2.85;2.63;;;18.70;67.20;;;;;;5012728;28;20562;-64
2023/05/15 06:44:58;;;;;;;3.55;3.25;;;18.70;67.10;;;;;;5021224;28;20792;-66
2023/05/15 06:47:24;;;;;;;2.92;2.72;;;18.70;67.10;;;;;;5019929;28;20181;-66
2023/05/15 06:49:50;;;;;;;3.40;3.20;;;18.70;67.20;;;;;;5012594;28;20195;-66
2023/05/15 06:52:15;;;;;;;2.97;2.78;;;18.70;67.20;;;;;;4995884;28;20195;-66
2023/05/15 06:54:42;;;;;;;3.05;2.78;;;18.60;67.00;;;;;;4995861;28;20188;-66
2023/05/15 06:57:07;;;;;;;3.33;3.03;;;18.70;67.00;;;;;;5020774;28;20283;-66
2023/05/15 06:59:34;;;;;;;3.13;2.90;;;18.70;67.30;;;;;;5012384;28;20750;-66
2023/05/15 07:02:01;;;;;;;3.20;3.00;;;18.60;67.10;;;;;;5011150;28;20207;-66
2023/05/15 07:04:29;;;;;;;2.40;2.30;;;18.70;67.20;;;;;;4995632;28;20211;-65
2023/05/15 07:06:55;;;;;;;2.90;2.70;;;18.70;67.30;;;;;;5013322;28;20200;-65
2023/05/15 07:09:21;;;;;;;3.25;2.95;;;18.70;67.30;;;;;;5027649;28;20184;-65
2023/05/15 07:11:47;;;;;;;3.30;3.10;;;18.70;67.20;;;;;;5012049;28;20187;-66
2023/05/15 07:14:13;;;;;;;3.03;2.83;;;18.70;67.50;;;;;;5011807;28;20192;-66
2023/05/15 07:16:38;;;;;;;3.10;2.90;;;18.70;67.40;;;;;;5011694;28;20200;-66
2023/05/15 07:19:04;;;;;;;3.08;2.75;;;18.70;67.40;;;;;;5028161;28;20192;-66
2023/05/15 07:21:30;;;;;;;3.15;2.95;;;18.70;67.40;;;;;;5028293;28;20218;-66
2023/05/15 07:23:55;;;;;;;2.88;2.67;;;18.70;67.50;;;;;;5006054;28;20188;-67
2023/05/15 07:26:21;;;;;;;3.38;3.08;;;18.70;67.40;;;;;;5010403;28;20274;-66
2023/05/15 07:28:47;;;;;;;2.90;2.70;;;18.70;67.40;;;;;;5022309;28;20227;-66
2023/05/15 07:31:12;;;;;;;3.03;2.80;;;18.70;67.60;;;;;;5009607;28;20215;-66
2023/05/15 07:33:38;;;;;;;3.38;3.17;;;18.70;68.30;;;;;;5021167;28;20652;-66
2023/05/15 07:36:05;;;;;;;3.20;2.90;;;18.70;67.50;;;;;;5011292;28;20208;-66
2023/05/15 07:38:31;;;;;;;3.33;3.00;;;18.70;67.50;;;;;;5011181;28;20238;-66
2023/05/15 07:40:56;;;;;;;3.20;3.00;;;18.70;67.50;;;;;;5012825;28;20187;-66
2023/05/15 07:43:22;;;;;;;2.97;2.78;;;18.70;67.50;;;;;;4995076;28;20270;-66
2023/05/15 07:45:48;;;;;;;3.20;2.90;;;18.70;67.50;;;;;;5011655;28;20208;-67
2023/05/15 07:48:18;;;;;;;3.10;2.80;;;18.70;67.60;;;;;;5011300;28;20184;-66
2023/05/15 07:50:46;;;;;;;3.60;3.30;;;18.70;67.50;;;;;;4995120;28;20628;-66
2023/05/15 07:53:17;;;;;;;2.83;2.63;;;18.70;67.50;;;;;;5012656;28;20561;-66
2023/05/15 07:55:43;;;;;;;2.97;2.78;;;18.70;67.90;;;;;;5011453;28;20208;-66
2023/05/15 07:58:09;;;;;;;3.05;2.85;;;18.70;67.50;;;;;;5011386;28;20187;-66
2023/05/15 08:00:35;;;;;;;3.00;2.80;;;18.70;67.50;;;;;;5027600;28;20204;-67
2023/05/15 08:03:01;;;;;;;3.42;2.88;;;18.70;67.30;;;;;;4995175;28;20204;-66
2023/05/15 08:05:28;;;;;;;3.10;2.90;;;18.70;67.30;;;;;;5012290;28;20230;-66
2023/05/15 08:07:55;;;;;;;2.83;2.63;;;18.70;67.30;;;;;;5027031;28;20203;-66
2023/05/15 08:10:21;;;;;;;2.95;2.75;;;18.80;67.70;;;;;;5027567;28;20190;-66
2023/05/15 08:12:47;;;;;;;3.33;3.03;;;18.80;67.60;;;;;;5010986;28;20662;-66
2023/05/15 08:15:13;;;;;;;3.65;2.80;;;18.80;67.70;;;;;;4994629;28;20219;-65
2023/05/15 08:17:40;;;;;;;3.75;3.45;;;18.80;67.60;;;;;;5011232;28;20215;-65
2023/05/15 08:20:06;;;;;;;3.33;3.03;;;18.80;67.50;;;;;;5027495;28;20267;-66
2023/05/15 08:22:32;;;;;;;3.17;2.92;;;18.90;67.60;;;;;;5010823;28;20219;-66
2023/05/15 08:24:59;;;;;;;3.13;2.92;;;18.90;67.60;;;;;;5010977;28;20200;-66
2023/05/15 08:27:25;;;;;;;3.00;2.80;;;18.90;67.50;;;;;;5010637;28;20184;-66
2023/05/15 08:29:53;;;;;;;2.92;2.72;;;18.90;67.50;;;;;;5011151;28;20184;-66
2023/05/15 08:32:18;;;;;;;3.63;3.30;;;18.80;67.50;;;;;;5012055;28;20573;-66
2023/05/15 08:34:44;;;;;;;2.72;2.53;;;18.90;67.60;;;;;;5011045;28;20188;-66
2023/05/15 08:37:10;;;;;;;3.22;3.03;;;18.90;67.80;;;;;;5011057;28;20188;-66
2023/05/15 08:39:36;;;;;;;2.90;2.70;;;18.80;67.70;;;;;;5010987;28;20659;-66
2023/05/15 08:42:13;;;;;;;3.40;3.10;;;18.80;67.50;;;;;;4991277;28;20223;-66
2023/05/15 08:44:40;;;;;;;2.88;2.67;;;18.90;67.60;;;;;;5019780;28;20182;-65
2023/05/15 08:47:06;;;;;;;3.40;3.10;;;18.90;67.40;;;;;;5019292;28;20168;-65
2023/05/15 08:49:42;;;;;;;3.17;2.97;;;18.90;67.50;;;;;;5027284;28;20195;-66
2023/05/15 08:52:08;;;;;;;2.78;2.58;;;18.90;67.60;;;;;;5011277;28;20608;-66
2023/05/15 08:54:34;;;;;;;2.90;2.70;;;18.90;67.60;;;;;;4994746;28;20307;-66
2023/05/15 08:57:02;;;;;;;2.83;2.63;;;18.90;67.50;;;;;;5011758;28;20205;-66
2023/05/15 08:59:28;;;;;;;3.03;2.83;;;18.90;67.30;;;;;;5002854;28;20220;-66
2023/05/15 09:01:55;;;;;;;2.83;2.63;;;18.90;67.80;;;;;;4991285;28;20201;-66
2023/05/15 09:04:21;;;;;;;2.90;2.50;;;18.90;67.70;;;;;;5000640;28;20219;-66
2023/05/15 09:06:48;;;;;;;2.78;2.58;;;18.90;67.80;;;;;;5010547;28;20235;-66
2023/05/15 09:09:15;;;;;;;2.50;2.30;;;19.00;67.80;;;;;;5010753;28;20210;-66
2023/05/15 09:11:44;;;;;;;2.63;2.50;;;18.90;67.50;;;;;;5025140;28;20234;-65
2023/05/15 09:14:10;;;;;;;2.80;2.60;;;18.90;67.60;;;;;;5010749;28;20189;-66
2023/05/15 09:16:38;;;;;;;2.90;2.70;;;18.90;67.70;;;;;;5003569;28;20211;-66
2023/05/15 09:19:05;;;;;;;3.10;2.90;;;18.90;67.80;;;;;;5010491;28;20199;-66
2023/05/15 09:21:32;;;;;;;3.33;2.70;;;18.90;67.80;;;;;;5027273;28;20230;-66
2023/05/15 09:24:22;;;;;;;3.20;3.00;;;18.90;67.60;;;;;;5010538;28;20184;-66
2023/05/15 09:27:06;;;;;;;2.70;2.50;;;19.00;67.70;;;;;;5013140;28;20212;-66
2023/05/15 09:29:36;;;;;;;2.75;2.50;;;18.90;67.50;;;;;;5013445;28;20250;-65
2023/05/15 09:32:11;;;;;;;2.65;2.45;;;19.00;67.60;;;;;;4997960;28;20177;-65
2023/05/15 09:34:44;;;;;;;2.80;2.60;;;19.00;67.90;;;;;;5013713;28;20187;-64
2023/05/15 09:37:27;;;;;;;2.75;2.55;;;18.90;68.00;;;;;;4997743;28;20184;-65
2023/05/15 09:39:53;;;;;;;3.17;2.60;;;18.90;68.10;;;;;;5014130;28;20172;-65
2023/05/15 09:42:19;;;;;;;3.20;2.88;;;18.90;67.80;;;;;;5030034;28;20577;-65
2023/05/15 09:44:45;;;;;;;3.00;2.70;;;19.00;67.80;;;;;;5017503;28;20193;-66
2023/05/15 09:47:13;;;;;;;3.00;2.80;;;18.90;67.80;;;;;;5026373;28;20188;-65
2023/05/15 09:49:42;;;;;;;3.53;2.72;;;18.90;67.70;;;;;;5022483;28;20202;-65
2023/05/15 09:52:08;;;;;;;3.05;2.85;;;19.00;67.50;;;;;;5013585;28;20271;-65
2023/05/15 09:54:35;;;;;;;2.85;2.65;;;18.90;67.40;;;;;;5029735;28;20188;-65
2023/05/15 09:57:12;;;;;;;2.72;2.47;;;19.00;67.50;;;;;;5023468;28;20193;-65
2023/05/15 09:59:47;;;;;;;2.83;2.63;;;19.00;67.70;;;;;;5018604;28;20189;-64
2023/05/15 10:02:33;;;;;;;2.85;2.65;;;19.00;67.90;;;;;;5011314;28;20212;-64
2023/05/15 10:05:00;;;;;;;3.00;2.60;;;19.00;67.80;;;;;;4988318;28;20212;-64
2023/05/15 10:07:34;;;;;;;3.15;2.95;;;19.00;67.80;;;;;;5003451;28;20238;-65
2023/05/15 10:10:02;;;;;;;2.92;2.72;;;19.00;67.80;;;;;;5013299;28;20187;-65
2023/05/15 10:12:30;;;;;;;3.10;2.90;;;19.00;67.90;;;;;;5012140;28;20188;-65
2023/05/15 10:14:58;;;;;;;3.85;3.47;;;19.00;68.00;;;;;;5029647;28;20211;-65
2023/05/15 10:17:30;;;;;;;4.50;3.85;;;19.00;68.00;;;;;;5012943;28;20188;-65
2023/05/15 10:20:05;;;;;;;4.45;3.90;;;19.00;67.90;;;;;;4993781;28;20180;-65
2023/05/15 10:22:39;;;;;;;5.25;4.40;;;19.00;67.70;;;;;;5003989;28;20218;-65
2023/05/15 10:25:34;;;;;;;4.53;4.13;;;19.00;67.70;;;;;;5013145;28;20196;-65
2023/05/15 10:28:00;;;;;;;5.32;4.20;;;19.00;67.60;;;;;;5012864;28;20183;-65
2023/05/15 10:30:28;;;;;;;4.75;4.35;;;19.00;67.90;;;;;;4996403;28;20188;-65
2023/05/15 10:32:56;;;;;;;4.60;3.60;;;19.00;67.90;;;;;;4993190;28;20184;-65
2023/05/15 10:35:22;;;;;;;4.50;4.10;;;19.00;67.90;;;;;;5010216;28;20208;-63
2023/05/15 10:37:48;;;;;;;4.30;3.90;;;19.00;67.90;;;;;;5012803;28;20190;-64
2023/05/15 10:40:16;;;;;;;4.68;3.67;;;19.00;67.90;;;;;;5021251;28;20331;-63
2023/05/15 10:42:49;;;;;;;4.93;4.40;;;19.00;67.70;;;;;;5021172;28;20222;-65
2023/05/15 10:45:15;;;;;;;4.88;3.80;;;19.00;67.60;;;;;;5012906;28;20216;-65
2023/05/15 10:47:42;;;;;;;4.60;4.20;;;19.00;67.60;;;;;;5013515;28;20186;-65
2023/05/15 10:50:12;;;;;;;4.88;4.38;;;19.00;67.40;;;;;;5021955;28;20184;-65
2023/05/15 10:52:39;;;;;;;4.32;3.92;;;19.00;67.40;;;;;;5004463;28;20184;-63
2023/05/15 10:55:13;;;;;;;6.05;4.00;;;19.00;67.30;;;;;;5019825;28;20235;-65
2023/05/15 10:57:39;;;;;;;5.43;4.28;;;19.00;67.70;;;;;;5024310;28;20214;-64
2023/05/15 11:00:27;;;;;;;4.50;4.10;;;19.00;67.20;;;;;;5025778;28;20185;-65
2023/05/15 11:02:55;;;;;;;4.47;4.07;;;19.00;67.40;;;;;;4996109;28;20212;-65
2023/05/15 11:05:23;;;;;;;5.03;4.13;;;19.00;67.60;;;;;;5005035;28;20213;-64
2023/05/15 11:08:14;;;;;;;4.85;4.35;;;19.00;67.80;;;;;;5024185;28;20235;-65
2023/05/15 11:10:40;;;;;;;4.25;3.85;;;19.00;67.80;;;;;;5028235;28;20203;-65
2023/05/15 11:13:06;;;;;;;4.57;4.13;;;19.00;67.70;;;;;;5013136;28;20184;-65
2023/05/15 11:15:46;;;;;;;4.63;4.18;;;19.00;67.50;;;;;;5011832;28;20289;-65
2023/05/15 11:18:13;;;;;;;4.25;3.85;;;19.00;67.50;;;;;;4994202;28;20413;-64
2023/05/15 11:21:02;;;;;;;4.55;4.15;;;19.00;67.50;;;;;;5025473;28;20193;-65
2023/05/15 11:23:39;;;;;;;4.88;4.35;;;19.00;67.60;;;;;;5014797;28;20228;-66
2023/05/15 11:26:04;;;;;;;4.28;3.92;;;19.00;67.90;;;;;;5010273;28;20757;-66
2023/05/15 11:28:41;;;;;;;4.70;4.30;;;19.00;68.20;;;;;;5026570;28;20188;-66
2023/05/15 11:31:07;;;;;;;4.88;4.43;;;19.00;67.90;;;;;;5012092;28;20242;-65
2023/05/15 11:33:32;;;;;;;5.60;4.28;;;19.00;68.10;;;;;;5012835;28;20180;-65
2023/05/15 11:36:00;;;;;;;4.50;4.10;;;19.00;68.20;;;;;;5011582;28;20214;-64
2023/05/15 11:38:26;;;;;;;5.32;3.80;;;19.00;68.20;;;;;;5011837;28;20566;-65
2023/05/15 11:40:55;;;;;;;4.97;3.65;;;19.00;67.90;;;;;;5006046;28;20181;-64
2023/05/15 11:43:26;;;;;;;3.95;3.60;;;19.00;67.60;;;;;;5012674;28;20227;-65
2023/05/15 11:46:04;;;;;;;3.75;3.33;;;19.00;67.30;;;;;;5011355;28;20226;-65
2023/05/15 11:48:32;;;;;;;3.72;3.42;;;19.00;67.40;;;;;;5012024;28;20184;-65
2023/05/15 11:51:01;;;;;;;5.00;3.83;;;19.00;67.60;;;;;;5028204;28;20212;-66
2023/05/15 11:53:29;;;;;;;5.75;4.03;;;19.00;67.50;;;;;;5016237;28;20196;-66
2023/05/15 11:55:55;;;;;;;4.35;3.95;;;19.00;67.30;;;;;;5027583;28;20212;-65
2023/05/15 11:58:24;;;;;;;3.80;3.50;;;19.00;67.50;;;;;;5009419;28;20645;-65
2023/05/15 12:00:52;;;;;;;4.03;3.60;;;19.00;67.40;;;;;;5012661;28;20192;-65
2023/05/15 12:03:25;;;;;;;5.55;3.63;;;19.00;67.30;;;;;;5011312;28;20216;-65
2023/05/15 12:05:53;;;;;;;5.32;3.65;;;19.00;67.30;;;;;;5011155;28;20583;-65
2023/05/15 12:08:22;;;;;;;4.13;3.72;;;19.00;67.20;;;;;;5011145;28;20187;-66
2023/05/15 12:10:48;;;;;;;5.20;3.30;;;19.00;67.20;;;;;;5027634;28;20180;-66
2023/05/15 12:13:17;;;;;;;4.15;3.55;;;19.00;67.50;;;;;;5019392;28;20188;-66
2023/05/15 12:15:46;;;;;;;6.13;3.90;;;19.10;67.30;;;;;;5008883;28;20251;-66
2023/05/15 12:18:12;;;;;;;3.85;3.55;;;19.00;67.30;;;;;;5010677;28;20279;-66
2023/05/15 12:20:46;;;;;;;4.28;3.60;;;19.10;67.40;;;;;;5005272;28;20188;-64
2023/05/15 12:23:16;;;;;;;4.03;3.63;;;19.00;67.30;;;;;;4998260;28;20225;-65
2023/05/15 12:25:44;;;;;;;3.55;3.25;;;19.10;67.50;;;;;;5026516;28;20273;-65
2023/05/15 12:28:11;;;;;;;3.65;3.30;;;19.00;67.50;;;;;;5021157;28;20679;-66
2023/05/15 12:30:38;;;;;;;3.88;3.55;;;19.00;67.50;;;;;;5025922;28;20176;-66
2023/05/15 12:33:07;;;;;;;4.70;3.47;;;19.10;67.50;;;;;;4994569;28;20233;-64
2023/05/15 12:35:41;;;;;;;4.00;3.70;;;19.00;67.30;;;;;;4992326;28;20220;-66
2023/05/15 12:38:07;;;;;;;3.80;3.40;;;19.00;67.30;;;;;;4999226;28;20179;-63
2023/05/15 12:40:35;;;;;;;3.78;3.47;;;19.10;67.30;;;;;;5013008;28;20200;-66
2023/05/15 12:43:09;;;;;;;4.03;3.67;;;19.10;67.20;;;;;;5004440;28;20282;-66
2023/05/15 12:45:38;;;;;;;4.82;3.63;;;19.10;67.30;;;;;;4991432;28;20204;-66
2023/05/15 12:48:04;;;;;;;3.55;3.25;;;19.10;67.40;;;;;;5019397;28;20200;-65
2023/05/15 12:50:34;;;;;;;4.35;3.17;;;19.10;67.40;;;;;;5009406;28;20196;-66
2023/05/15 12:53:03;;;;;;;3.90;3.60;;;19.10;67.70;;;;;;4996469;28;20195;-65
2023/05/15 12:55:35;;;;;;;4.05;3.72;;;19.10;67.60;;;;;;5014329;28;20216;-65